sensor_id;sensor_type;location;lat;lon;timestamp;pressure;altitude;pressure_sealevel;temperature;humidity
56182;BME280;51963;46.052;14.544;2023-03-23T00:01:57;98016.72;;;8.23;89.69
56182;BME280;51963;46.052;14.544;2023-03-23T00:04:25;98016.72;;;8.23;90.52
56182;BME280;51963;46.052;14.544;2023-03-23T00:06:52;98015.63;;;8.02;90.90
56182;BME280;51963;46.052;14.544;2023-03-23T00:09:18;98013.91;;;8.10;90.83
56182;BME280;51963;46.052;14.544;2023-03-23T00:11:50;98018.09;;;8.19;92.10
56182;BME280;51963;46.052;14.544;2023-03-23T00:14:16;98012.09;;;8.25;91.20
56182;BME280;51963;46.052;14.544;2023-03-23T00:16:48;98007.00;;;8.08;91.52
56182;BME280;51963;46.052;14.544;2023-03-23T00:19:14;98014.63;;;8.03;93.01
56182;BME280;51963;46.052;14.544;2023-03-23T00:21:41;98013.34;;;8.29;91.59
56182;BME280;51963;46.052;14.544;2023-03-23T00:24:10;98015.81;;;8.31;92.30
56182;BME280;51963;46.052;14.544;2023-03-23T00:26:41;98007.28;;;8.14;91.65
56182;BME280;51963;46.052;14.544;2023-03-23T00:29:20;98007.66;;;8.26;92.83
56182;BME280;51963;46.052;14.544;2023-03-23T00:31:49;98003.19;;;8.26;91.96
56182;BME280;51963;46.052;14.544;2023-03-23T00:34:18;98009.34;;;8.03;94.17
56182;BME280;51963;46.052;14.544;2023-03-23T00:36:49;98008.56;;;8.03;93.93
56182;BME280;51963;46.052;14.544;2023-03-23T00:39:18;98003.31;;;7.80;95.97
56182;BME280;51963;46.052;14.544;2023-03-23T00:41:46;97995.66;;;7.70;97.10
56182;BME280;51963;46.052;14.544;2023-03-23T00:44:14;97999.28;;;7.69;97.48
56182;BME280;51963;46.052;14.544;2023-03-23T00:46:46;98005.53;;;7.53;97.97
56182;BME280;51963;46.052;14.544;2023-03-23T00:49:20;97992.50;;;7.36;99.82
56182;BME280;51963;46.052;14.544;2023-03-23T00:51:51;97982.56;;;7.46;97.52
56182;BME280;51963;46.052;14.544;2023-03-23T00:54:17;97997.63;;;7.29;98.20
56182;BME280;51963;46.052;14.544;2023-03-23T00:56:43;97987.47;;;7.03;100.00
56182;BME280;51963;46.052;14.544;2023-03-23T00:59:08;98007.69;;;7.02;100.00
56182;BME280;51963;46.052;14.544;2023-03-23T01:01:35;98012.94;;;7.02;100.00
56182;BME280;51963;46.052;14.544;2023-03-23T01:04:03;98016.41;;;7.03;100.00
56182;BME280;51963;46.052;14.544;2023-03-23T01:06:34;98004.75;;;6.97;100.00
56182;BME280;51963;46.052;14.544;2023-03-23T01:09:11;97980.69;;;6.85;100.00
56182;BME280;51963;46.052;14.544;2023-03-23T01:11:41;97999.69;;;6.96;100.00
56182;BME280;51963;46.052;14.544;2023-03-23T01:14:08;97982.31;;;6.86;100.00
56182;BME280;51963;46.052;14.544;2023-03-23T01:16:37;98004.63;;;6.90;100.00
56182;BME280;51963;46.052;14.544;2023-03-23T01:19:05;98000.41;;;6.81;100.00
56182;BME280;51963;46.052;14.544;2023-03-23T01:21:31;97981.81;;;6.59;100.00
56182;BME280;51963;46.052;14.544;2023-03-23T01:23:57;97991.94;;;6.71;100.00
56182;BME280;51963;46.052;14.544;2023-03-23T01:26:25;97993.88;;;6.77;100.00
56182;BME280;51963;46.052;14.544;2023-03-23T01:28:52;97980.97;;;6.59;100.00
56182;BME280;51963;46.052;14.544;2023-03-23T01:31:20;97985.59;;;6.57;100.00
56182;BME280;51963;46.052;14.544;2023-03-23T01:33:47;97989.72;;;6.51;100.00
56182;BME280;51963;46.052;14.544;2023-03-23T01:36:20;97982.34;;;6.46;100.00
56182;BME280;51963;46.052;14.544;2023-03-23T01:38:47;97986.78;;;6.46;100.00
56182;BME280;51963;46.052;14.544;2023-03-23T01:41:18;97978.09;;;6.45;100.00
56182;BME280;51963;46.052;14.544;2023-03-23T01:46:29;97978.72;;;6.48;100.00
56182;BME280;51963;46.052;14.544;2023-03-23T01:48:56;97976.78;;;6.41;100.00
56182;BME280;51963;46.052;14.544;2023-03-23T01:51:24;97947.16;;;6.24;100.00
56182;BME280;51963;46.052;14.544;2023-03-23T01:54:00;97946.84;;;6.19;100.00
56182;BME280;51963;46.052;14.544;2023-03-23T01:56:32;97968.69;;;6.11;100.00
56182;BME280;51963;46.052;14.544;2023-03-23T01:58:59;97955.09;;;6.08;100.00
56182;BME280;51963;46.052;14.544;2023-03-23T02:01:26;97963.94;;;6.15;100.00
56182;BME280;51963;46.052;14.544;2023-03-23T02:03:54;97965.75;;;6.06;100.00
56182;BME280;51963;46.052;14.544;2023-03-23T02:06:21;97974.44;;;5.98;100.00
56182;BME280;51963;46.052;14.544;2023-03-23T02:09:16;97953.09;;;6.18;100.00
56182;BME280;51963;46.052;14.544;2023-03-23T02:11:48;97952.75;;;6.21;100.00
56182;BME280;51963;46.052;14.544;2023-03-23T02:14:16;97962.91;;;6.24;100.00
56182;BME280;51963;46.052;14.544;2023-03-23T02:17:05;97954.25;;;6.15;100.00
56182;BME280;51963;46.052;14.544;2023-03-23T02:22:37;97967.00;;;6.27;100.00
56182;BME280;51963;46.052;14.544;2023-03-23T02:28:51;97967.34;;;6.24;100.00
56182;BME280;51963;46.052;14.544;2023-03-23T02:34:08;97960.97;;;6.18;100.00
56182;BME280;51963;46.052;14.544;2023-03-23T02:37:02;97963.47;;;6.03;100.00
56182;BME280;51963;46.052;14.544;2023-03-23T02:39:33;97968.22;;;6.08;100.00
56182;BME280;51963;46.052;14.544;2023-03-23T02:42:05;97964.75;;;5.99;100.00
56182;BME280;51963;46.052;14.544;2023-03-23T02:44:33;97958.53;;;5.92;100.00
56182;BME280;51963;46.052;14.544;2023-03-23T02:47:00;97965.28;;;5.94;100.00
56182;BME280;51963;46.052;14.544;2023-03-23T02:49:31;97958.84;;;5.97;100.00
56182;BME280;51963;46.052;14.544;2023-03-23T02:52:07;97958.06;;;5.96;100.00
56182;BME280;51963;46.052;14.544;2023-03-23T02:54:34;97963.81;;;5.83;100.00
56182;BME280;51963;46.052;14.544;2023-03-23T02:57:01;97966.63;;;5.73;100.00
56182;BME280;51963;46.052;14.544;2023-03-23T02:59:29;97965.47;;;5.68;100.00
56182;BME280;51963;46.052;14.544;2023-03-23T03:01:59;97959.25;;;5.69;100.00
56182;BME280;51963;46.052;14.544;2023-03-23T03:04:30;97939.91;;;5.53;100.00
56182;BME280;51963;46.052;14.544;2023-03-23T03:09:54;97948.44;;;5.64;100.00
56182;BME280;51963;46.052;14.544;2023-03-23T03:12:42;97956.81;;;5.67;100.00
56182;BME280;51963;46.052;14.544;2023-03-23T03:15:16;97958.09;;;5.71;100.00
56182;BME280;51963;46.052;14.544;2023-03-23T03:17:49;97949.28;;;5.56;100.00
56182;BME280;51963;46.052;14.544;2023-03-23T03:20:19;97948.56;;;5.87;100.00
56182;BME280;51963;46.052;14.544;2023-03-23T03:22:47;97960.06;;;5.78;100.00
56182;BME280;51963;46.052;14.544;2023-03-23T03:25:14;97951.53;;;5.76;100.00
56182;BME280;51963;46.052;14.544;2023-03-23T03:27:46;97955.50;;;5.63;100.00
56182;BME280;51963;46.052;14.544;2023-03-23T03:30:25;97949.91;;;5.66;100.00
56182;BME280;51963;46.052;14.544;2023-03-23T03:32:53;97952.34;;;5.68;100.00
56182;BME280;51963;46.052;14.544;2023-03-23T03:35:22;97964.69;;;5.59;100.00
56182;BME280;51963;46.052;14.544;2023-03-23T03:37:49;97964.84;;;5.49;100.00
56182;BME280;51963;46.052;14.544;2023-03-23T03:40:19;97957.94;;;5.48;100.00
56182;BME280;51963;46.052;14.544;2023-03-23T03:42:45;97965.03;;;5.39;100.00
56182;BME280;51963;46.052;14.544;2023-03-23T03:45:14;97955.19;;;5.41;100.00
56182;BME280;51963;46.052;14.544;2023-03-23T03:47:40;97959.44;;;5.34;100.00
56182;BME280;51963;46.052;14.544;2023-03-23T03:50:07;97955.81;;;5.27;100.00
56182;BME280;51963;46.052;14.544;2023-03-23T03:52:33;97963.84;;;5.25;100.00
56182;BME280;51963;46.052;14.544;2023-03-23T03:54:59;97967.13;;;5.27;100.00
56182;BME280;51963;46.052;14.544;2023-03-23T03:57:26;97955.97;;;5.09;100.00
56182;BME280;51963;46.052;14.544;2023-03-23T03:59:52;97974.81;;;5.12;100.00
56182;BME280;51963;46.052;14.544;2023-03-23T04:02:36;97976.63;;;5.04;100.00
56182;BME280;51963;46.052;14.544;2023-03-23T04:05:02;97967.59;;;4.98;100.00
56182;BME280;51963;46.052;14.544;2023-03-23T04:07:32;97970.38;;;4.96;100.00
56182;BME280;51963;46.052;14.544;2023-03-23T04:10:04;97978.38;;;4.95;100.00
56182;BME280;51963;46.052;14.544;2023-03-23T04:12:31;97971.03;;;4.90;100.00
56182;BME280;51963;46.052;14.544;2023-03-23T04:14:59;97973.31;;;4.93;100.00
56182;BME280;51963;46.052;14.544;2023-03-23T04:17:30;97971.06;;;5.15;100.00
56182;BME280;51963;46.052;14.544;2023-03-23T04:19:57;97971.84;;;4.99;100.00
56182;BME280;51963;46.052;14.544;2023-03-23T04:22:24;97980.34;;;4.93;100.00
56182;BME280;51963;46.052;14.544;2023-03-23T04:24:57;97972.81;;;4.90;100.00
56182;BME280;51963;46.052;14.544;2023-03-23T04:27:25;97975.28;;;4.83;100.00
56182;BME280;51963;46.052;14.544;2023-03-23T04:29:55;97960.84;;;4.70;100.00
56182;BME280;51963;46.052;14.544;2023-03-23T04:32:51;97980.31;;;4.76;100.00
56182;BME280;51963;46.052;14.544;2023-03-23T04:35:23;97961.63;;;4.71;100.00
56182;BME280;51963;46.052;14.544;2023-03-23T04:38:02;97975.44;;;4.90;100.00
56182;BME280;51963;46.052;14.544;2023-03-23T04:40:27;97977.06;;;4.82;100.00
56182;BME280;51963;46.052;14.544;2023-03-23T04:43:06;97977.38;;;4.79;100.00
56182;BME280;51963;46.052;14.544;2023-03-23T04:45:57;97978.38;;;4.87;100.00
56182;BME280;51963;46.052;14.544;2023-03-23T04:48:25;97973.66;;;4.90;100.00
56182;BME280;51963;46.052;14.544;2023-03-23T04:51:03;97967.06;;;4.78;100.00
56182;BME280;51963;46.052;14.544;2023-03-23T04:53:31;97980.81;;;4.80;100.00
56182;BME280;51963;46.052;14.544;2023-03-23T04:55:57;97982.59;;;4.71;100.00
56182;BME280;51963;46.052;14.544;2023-03-23T04:58:24;97978.72;;;4.92;100.00
56182;BME280;51963;46.052;14.544;2023-03-23T05:01:13;97990.84;;;5.09;100.00
56182;BME280;51963;46.052;14.544;2023-03-23T05:03:50;97994.09;;;4.95;100.00
56182;BME280;51963;46.052;14.544;2023-03-23T05:06:15;97988.88;;;5.03;100.00
56182;BME280;51963;46.052;14.544;2023-03-23T05:08:42;97992.78;;;4.91;100.00
56182;BME280;51963;46.052;14.544;2023-03-23T05:11:07;97993.09;;;4.88;100.00
56182;BME280;51963;46.052;14.544;2023-03-23T05:13:38;97981.31;;;4.83;100.00
56182;BME280;51963;46.052;14.544;2023-03-23T05:16:06;97990.16;;;4.82;100.00
56182;BME280;51963;46.052;14.544;2023-03-23T05:18:34;97992.94;;;4.81;100.00
56182;BME280;51963;46.052;14.544;2023-03-23T05:21:03;98000.34;;;5.02;100.00
56182;BME280;51963;46.052;14.544;2023-03-23T05:23:34;97996.06;;;4.93;100.00
56182;BME280;51963;46.052;14.544;2023-03-23T05:26:10;97998.38;;;4.96;100.00
56182;BME280;51963;46.052;14.544;2023-03-23T05:28:36;97999.66;;;4.92;100.00
56182;BME280;51963;46.052;14.544;2023-03-23T05:31:09;98009.84;;;5.03;100.00
56182;BME280;51963;46.052;14.544;2023-03-23T05:33:35;98006.91;;;5.06;100.00
56182;BME280;51963;46.052;14.544;2023-03-23T05:36:12;97949.84;;;4.67;100.00
56182;BME280;51963;46.052;14.544;2023-03-23T05:39:05;97995.28;;;5.09;100.00
56182;BME280;51963;46.052;14.544;2023-03-23T05:41:49;98016.28;;;5.17;100.00
56182;BME280;51963;46.052;14.544;2023-03-23T05:44:15;98025.28;;;5.23;100.00
56182;BME280;51963;46.052;14.544;2023-03-23T05:46:46;98027.25;;;5.29;100.00
56182;BME280;51963;46.052;14.544;2023-03-23T05:49:13;98023.66;;;5.30;100.00
56182;BME280;51963;46.052;14.544;2023-03-23T05:51:42;98030.22;;;5.34;100.00
56182;BME280;51963;46.052;14.544;2023-03-23T05:54:10;98005.97;;;5.32;100.00
56182;BME280;51963;46.052;14.544;2023-03-23T05:56:37;98024.81;;;5.61;100.00
56182;BME280;51963;46.052;14.544;2023-03-23T05:59:25;98034.84;;;5.65;100.00
56182;BME280;51963;46.052;14.544;2023-03-23T06:01:54;98030.91;;;5.61;100.00
56182;BME280;51963;46.052;14.544;2023-03-23T06:04:25;98034.97;;;5.55;100.00
56182;BME280;51963;46.052;14.544;2023-03-23T06:07:17;98033.66;;;5.60;100.00
56182;BME280;51963;46.052;14.544;2023-03-23T06:09:52;98045.31;;;5.65;100.00
56182;BME280;51963;46.052;14.544;2023-03-23T06:12:21;98049.25;;;5.69;100.00
56182;BME280;51963;46.052;14.544;2023-03-23T06:14:57;98053.53;;;5.70;100.00
56182;BME280;51963;46.052;14.544;2023-03-23T06:17:34;98059.56;;;5.79;100.00
56182;BME280;51963;46.052;14.544;2023-03-23T06:20:03;98035.31;;;5.77;100.00
56182;BME280;51963;46.052;14.544;2023-03-23T06:22:30;98044.31;;;5.99;100.00
56182;BME280;51963;46.052;14.544;2023-03-23T06:25:16;98051.22;;;6.09;100.00
56182;BME280;51963;46.052;14.544;2023-03-23T06:27:46;98058.88;;;6.27;100.00
56182;BME280;51963;46.052;14.544;2023-03-23T06:30:13;98036.00;;;6.52;100.00
56182;BME280;51963;46.052;14.544;2023-03-23T06:32:42;98044.50;;;6.63;100.00
56182;BME280;51963;46.052;14.544;2023-03-23T06:35:11;98051.03;;;6.75;100.00
56182;BME280;51963;46.052;14.544;2023-03-23T06:38:08;98043.94;;;6.75;100.00
56182;BME280;51963;46.052;14.544;2023-03-23T06:40:42;98034.06;;;6.86;100.00
56182;BME280;51963;46.052;14.544;2023-03-23T06:43:13;98054.78;;;7.12;100.00
56182;BME280;51963;46.052;14.544;2023-03-23T06:45:51;98053.22;;;7.26;100.00
56182;BME280;51963;46.052;14.544;2023-03-23T06:48:38;98050.81;;;7.40;100.00
56182;BME280;51963;46.052;14.544;2023-03-23T06:51:05;98042.06;;;7.47;100.00
56182;BME280;51963;46.052;14.544;2023-03-23T06:53:31;98053.09;;;7.66;100.00
56182;BME280;51963;46.052;14.544;2023-03-23T06:55:59;98053.97;;;7.82;100.00
56182;BME280;51963;46.052;14.544;2023-03-23T06:58:26;98048.31;;;8.08;100.00
56182;BME280;51963;46.052;14.544;2023-03-23T07:00:56;98059.69;;;8.39;100.00
56182;BME280;51963;46.052;14.544;2023-03-23T07:03:27;98045.72;;;8.53;100.00
56182;BME280;51963;46.052;14.544;2023-03-23T07:05:54;98049.50;;;8.95;100.00
56182;BME280;51963;46.052;14.544;2023-03-23T07:08:23;98052.50;;;9.29;100.00
56182;BME280;51963;46.052;14.544;2023-03-23T07:10:54;98059.06;;;9.55;99.35
56182;BME280;51963;46.052;14.544;2023-03-23T07:13:25;98064.88;;;9.72;99.71
56182;BME280;51963;46.052;14.544;2023-03-23T07:15:59;98047.03;;;9.52;97.78
56182;BME280;51963;46.052;14.544;2023-03-23T07:18:26;98065.47;;;9.96;96.55
56182;BME280;51963;46.052;14.544;2023-03-23T07:20:54;98074.53;;;10.08;95.42
56182;BME280;51963;46.052;14.544;2023-03-23T07:23:29;98075.34;;;10.09;94.45
56182;BME280;51963;46.052;14.544;2023-03-23T07:26:02;98072.72;;;10.09;93.55
56182;BME280;51963;46.052;14.544;2023-03-23T07:28:49;98068.72;;;10.20;93.96
56182;BME280;51963;46.052;14.544;2023-03-23T07:31:24;98070.25;;;10.36;93.18
56182;BME280;51963;46.052;14.544;2023-03-23T07:33:50;98051.47;;;10.24;92.87
56182;BME280;51963;46.052;14.544;2023-03-23T07:36:17;98067.78;;;10.34;93.53
56182;BME280;51963;46.052;14.544;2023-03-23T07:38:43;98066.09;;;10.55;94.80
56182;BME280;51963;46.052;14.544;2023-03-23T07:41:09;98059.97;;;10.83;90.38
56182;BME280;51963;46.052;14.544;2023-03-23T07:43:38;98059.59;;;10.93;90.07
56182;BME280;51963;46.052;14.544;2023-03-23T07:46:09;98068.66;;;11.32;89.55
56182;BME280;51963;46.052;14.544;2023-03-23T07:48:50;98063.84;;;11.56;87.08
56182;BME280;51963;46.052;14.544;2023-03-23T07:51:20;98050.84;;;11.95;85.91
56182;BME280;51963;46.052;14.544;2023-03-23T07:53:51;98061.38;;;11.41;88.40
56182;BME280;51963;46.052;14.544;2023-03-23T07:56:40;98071.78;;;11.69;87.68
56182;BME280;51963;46.052;14.544;2023-03-23T07:59:12;98062.69;;;12.12;85.30
56182;BME280;51963;46.052;14.544;2023-03-23T08:01:40;98065.00;;;12.74;82.01
56182;BME280;51963;46.052;14.544;2023-03-23T08:04:29;98063.66;;;13.49;78.64
56182;BME280;51963;46.052;14.544;2023-03-23T08:07:16;98054.75;;;14.20;73.76
56182;BME280;51963;46.052;14.544;2023-03-23T08:09:56;98062.09;;;14.62;71.04
56182;BME280;51963;46.052;14.544;2023-03-23T08:12:25;98051.91;;;14.77;71.53
56182;BME280;51963;46.052;14.544;2023-03-23T08:15:26;98062.56;;;14.77;71.22
56182;BME280;51963;46.052;14.544;2023-03-23T08:18:18;98061.06;;;14.81;69.55
56182;BME280;51963;46.052;14.544;2023-03-23T08:20:53;98054.53;;;15.15;69.15
56182;BME280;51963;46.052;14.544;2023-03-23T08:23:31;98060.13;;;15.25;69.24
56182;BME280;51963;46.052;14.544;2023-03-23T08:26:09;98056.38;;;15.45;67.94
56182;BME280;51963;46.052;14.544;2023-03-23T08:28:58;98049.84;;;15.83;65.59
56182;BME280;51963;46.052;14.544;2023-03-23T08:31:54;98028.13;;;16.10;64.63
56182;BME280;51963;46.052;14.544;2023-03-23T08:34:29;98052.59;;;16.31;63.87
56182;BME280;51963;46.052;14.544;2023-03-23T08:37:28;98048.06;;;16.43;63.27
56182;BME280;51963;46.052;14.544;2023-03-23T08:40:00;98055.03;;;16.44;63.13
56182;BME280;51963;46.052;14.544;2023-03-23T08:43:02;98047.00;;;15.42;65.98
56182;BME280;51963;46.052;14.544;2023-03-23T08:45:46;98045.41;;;15.95;64.12
56182;BME280;51963;46.052;14.544;2023-03-23T08:48:32;98050.81;;;16.60;62.00
56182;BME280;51963;46.052;14.544;2023-03-23T08:51:19;98044.78;;;17.18;61.25
56182;BME280;51963;46.052;14.544;2023-03-23T08:54:10;98042.09;;;17.64;59.22
56182;BME280;51963;46.052;14.544;2023-03-23T08:57:09;98066.00;;;18.39;55.48
56182;BME280;51963;46.052;14.544;2023-03-23T09:00:12;98063.25;;;17.82;56.18
56182;BME280;51963;46.052;14.544;2023-03-23T09:03:16;98049.66;;;17.38;58.09
56182;BME280;51963;46.052;14.544;2023-03-23T09:06:03;98041.97;;;16.71;60.50
56182;BME280;51963;46.052;14.544;2023-03-23T09:08:37;98038.88;;;17.15;58.37
56182;BME280;51963;46.052;14.544;2023-03-23T09:11:07;98047.69;;;17.79;56.82
56182;BME280;51963;46.052;14.544;2023-03-23T09:13:35;98027.59;;;17.59;55.79
56182;BME280;51963;46.052;14.544;2023-03-23T09:16:01;98024.81;;;17.37;56.30
56182;BME280;51963;46.052;14.544;2023-03-23T09:18:28;98036.66;;;17.41;56.80
56182;BME280;51963;46.052;14.544;2023-03-23T09:20:54;98033.03;;;17.19;56.30
56182;BME280;51963;46.052;14.544;2023-03-23T09:23:20;98009.94;;;17.41;56.21
56182;BME280;51963;46.052;14.544;2023-03-23T09:25:48;98051.75;;;17.99;55.60
56182;BME280;51963;46.052;14.544;2023-03-23T09:28:15;98040.00;;;17.83;56.44
56182;BME280;51963;46.052;14.544;2023-03-23T09:30:41;98029.81;;;18.14;54.38
56182;BME280;51963;46.052;14.544;2023-03-23T09:33:08;98016.28;;;18.03;53.90
56182;BME280;51963;46.052;14.544;2023-03-23T09:35:35;98032.91;;;18.45;55.02
56182;BME280;51963;46.052;14.544;2023-03-23T09:38:03;98029.31;;;18.56;53.91
56182;BME280;51963;46.052;14.544;2023-03-23T09:40:36;98010.75;;;19.44;53.39
56182;BME280;51963;46.052;14.544;2023-03-23T09:48:50;98039.59;;;18.65;52.28
56182;BME280;51963;46.052;14.544;2023-03-23T09:51:26;98033.81;;;18.73;51.50
56182;BME280;51963;46.052;14.544;2023-03-23T09:53:56;98024.94;;;18.95;51.50
56182;BME280;51963;46.052;14.544;2023-03-23T09:56:25;98003.03;;;20.28;50.84
56182;BME280;51963;46.052;14.544;2023-03-23T09:59:16;97998.75;;;20.32;47.10
56182;BME280;51963;46.052;14.544;2023-03-23T10:01:48;98000.63;;;20.85;47.47
56182;BME280;51963;46.052;14.544;2023-03-23T10:04:25;98001.84;;;21.51;44.75
56182;BME280;51963;46.052;14.544;2023-03-23T10:06:57;98003.38;;;22.35;42.96
56182;BME280;51963;46.052;14.544;2023-03-23T10:09:26;98001.44;;;22.41;44.05
56182;BME280;51963;46.052;14.544;2023-03-23T10:12:02;97998.59;;;22.01;44.25
56182;BME280;51963;46.052;14.544;2023-03-23T10:14:37;97994.38;;;22.66;43.04
56182;BME280;51963;46.052;14.544;2023-03-23T10:17:17;97990.03;;;21.78;43.34
56182;BME280;51963;46.052;14.544;2023-03-23T10:25:42;97985.03;;;22.42;42.58
56182;BME280;51963;46.052;14.544;2023-03-23T10:28:14;97981.25;;;23.49;41.54
56182;BME280;51963;46.052;14.544;2023-03-23T10:30:55;97973.00;;;24.24;38.54
56182;BME280;51963;46.052;14.544;2023-03-23T10:33:41;97977.56;;;24.72;39.25
56182;BME280;51963;46.052;14.544;2023-03-23T10:36:27;97975.53;;;26.20;37.84
56182;BME280;51963;46.052;14.544;2023-03-23T10:39:02;97973.22;;;26.14;35.48
56182;BME280;51963;46.052;14.544;2023-03-23T10:41:33;97961.75;;;26.03;35.42
56182;BME280;51963;46.052;14.544;2023-03-23T10:43:59;97971.69;;;25.93;34.63
56182;BME280;51963;46.052;14.544;2023-03-23T10:46:45;97949.19;;;25.79;34.34
56182;BME280;51963;46.052;14.544;2023-03-23T10:49:18;97969.47;;;25.96;36.21
56182;BME280;51963;46.052;14.544;2023-03-23T10:51:57;97970.78;;;25.98;34.73
56182;BME280;51963;46.052;14.544;2023-03-23T10:54:31;97968.81;;;26.88;31.02
56182;BME280;51963;46.052;14.544;2023-03-23T10:56:59;97960.28;;;26.25;31.34
56182;BME280;51963;46.052;14.544;2023-03-23T10:59:30;97962.06;;;27.45;30.60
56182;BME280;51963;46.052;14.544;2023-03-23T11:02:01;97971.91;;;26.95;30.77
56182;BME280;51963;46.052;14.544;2023-03-23T11:04:29;97963.09;;;26.61;30.37
56182;BME280;51963;46.052;14.544;2023-03-23T11:07:01;97937.16;;;28.06;28.36
56182;BME280;51963;46.052;14.544;2023-03-23T11:09:50;97941.25;;;27.63;29.37
56182;BME280;51963;46.052;14.544;2023-03-23T11:12:20;97943.31;;;27.89;29.03
56182;BME280;51963;46.052;14.544;2023-03-23T11:14:49;97939.53;;;27.99;28.68
56182;BME280;51963;46.052;14.544;2023-03-23T11:17:24;97945.22;;;27.34;29.78
56182;BME280;51963;46.052;14.544;2023-03-23T11:19:50;97944.84;;;26.39;30.82
56182;BME280;51963;46.052;14.544;2023-03-23T11:22:31;97951.94;;;26.07;30.92
56182;BME280;51963;46.052;14.544;2023-03-23T11:25:03;97922.69;;;24.71;32.15
56182;BME280;51963;46.052;14.544;2023-03-23T11:27:30;97928.38;;;25.27;31.42
56182;BME280;51963;46.052;14.544;2023-03-23T11:30:00;97951.16;;;24.44;33.19
56182;BME280;51963;46.052;14.544;2023-03-23T11:32:29;97947.50;;;24.11;34.07
56182;BME280;51963;46.052;14.544;2023-03-23T11:35:00;97945.09;;;23.50;34.78
56182;BME280;51963;46.052;14.544;2023-03-23T11:37:34;97935.41;;;22.64;35.92
56182;BME280;51963;46.052;14.544;2023-03-23T11:42:42;97946.31;;;22.23;37.39
56182;BME280;51963;46.052;14.544;2023-03-23T11:45:24;97936.56;;;22.48;36.77
56182;BME280;51963;46.052;14.544;2023-03-23T11:48:21;97950.63;;;22.24;36.40
56182;BME280;51963;46.052;14.544;2023-03-23T11:50:54;97930.66;;;23.36;34.44
56182;BME280;51963;46.052;14.544;2023-03-23T11:56:13;97924.72;;;23.34;36.21
56182;BME280;51963;46.052;14.544;2023-03-23T11:58:42;97939.28;;;24.21;33.36
56182;BME280;51963;46.052;14.544;2023-03-23T12:07:42;97936.91;;;22.20;35.53
56182;BME280;51963;46.052;14.544;2023-03-23T12:12:42;97941.91;;;23.72;34.41
56182;BME280;51963;46.052;14.544;2023-03-23T12:15:18;97924.16;;;25.21;32.15
56182;BME280;51963;46.052;14.544;2023-03-23T12:26:50;97909.34;;;24.17;32.47
56182;BME280;51963;46.052;14.544;2023-03-23T12:29:26;97892.63;;;24.97;31.75
56182;BME280;51963;46.052;14.544;2023-03-23T12:32:48;97918.06;;;25.29;31.25
56182;BME280;51963;46.052;14.544;2023-03-23T12:40:43;97920.94;;;25.85;30.75
56182;BME280;51963;46.052;14.544;2023-03-23T12:48:37;97918.41;;;25.09;31.60
56182;BME280;51963;46.052;14.544;2023-03-23T12:51:13;97926.06;;;24.63;32.23
56182;BME280;51963;46.052;14.544;2023-03-23T12:56:35;97913.72;;;24.13;33.04
56182;BME280;51963;46.052;14.544;2023-03-23T13:01:43;97912.91;;;25.14;30.94
56182;BME280;51963;46.052;14.544;2023-03-23T13:04:23;97916.53;;;25.09;30.58
56182;BME280;51963;46.052;14.544;2023-03-23T13:06:51;97905.34;;;24.15;31.69
56182;BME280;51963;46.052;14.544;2023-03-23T13:09:27;97906.44;;;24.57;30.76
56182;BME280;51963;46.052;14.544;2023-03-23T13:11:58;97913.09;;;25.98;29.13
56182;BME280;51963;46.052;14.544;2023-03-23T13:17:40;97900.09;;;28.10;26.36
56182;BME280;51963;46.052;14.544;2023-03-23T13:23:19;97888.88;;;28.03;26.45
56182;BME280;51963;46.052;14.544;2023-03-23T13:28:25;97883.00;;;26.92;27.93
56182;BME280;51963;46.052;14.544;2023-03-23T13:31:12;97909.78;;;27.93;26.87
56182;BME280;51963;46.052;14.544;2023-03-23T13:33:45;97891.53;;;26.99;26.72
56182;BME280;51963;46.052;14.544;2023-03-23T13:36:13;97889.03;;;27.57;27.04
56182;BME280;51963;46.052;14.544;2023-03-23T13:38:47;97880.59;;;26.54;28.11
56182;BME280;51963;46.052;14.544;2023-03-23T13:41:16;97878.91;;;25.74;28.72
56182;BME280;51963;46.052;14.544;2023-03-23T13:43:43;97857.16;;;25.93;28.48
56182;BME280;51963;46.052;14.544;2023-03-23T13:48:47;97883.09;;;25.19;29.46
56182;BME280;51963;46.052;14.544;2023-03-23T13:56:52;97877.34;;;28.64;25.68
56182;BME280;51963;46.052;14.544;2023-03-23T14:01:53;97888.25;;;26.38;27.11
56182;BME280;51963;46.052;14.544;2023-03-23T14:04:19;97865.97;;;25.99;27.99
56182;BME280;51963;46.052;14.544;2023-03-23T14:06:50;97863.38;;;27.41;25.84
56182;BME280;51963;46.052;14.544;2023-03-23T14:09:33;97863.72;;;28.29;25.16
56182;BME280;51963;46.052;14.544;2023-03-23T14:12:15;97861.16;;;28.23;25.47
56182;BME280;51963;46.052;14.544;2023-03-23T14:14:49;97880.00;;;29.52;23.46
56182;BME280;51963;46.052;14.544;2023-03-23T14:17:22;97885.97;;;27.90;25.28
56182;BME280;51963;46.052;14.544;2023-03-23T14:19:53;97868.00;;;27.72;25.50
56182;BME280;51963;46.052;14.544;2023-03-23T14:22:32;97852.31;;;26.04;27.53
56182;BME280;51963;46.052;14.544;2023-03-23T14:25:09;97886.53;;;25.25;28.60
56182;BME280;51963;46.052;14.544;2023-03-23T14:27:36;97863.31;;;26.49;27.16
56182;BME280;51963;46.052;14.544;2023-03-23T14:30:23;97860.91;;;26.62;27.59
56182;BME280;51963;46.052;14.544;2023-03-23T14:32:52;97875.72;;;27.24;26.53
56182;BME280;51963;46.052;14.544;2023-03-23T14:35:22;97891.13;;;26.41;27.42
56182;BME280;51963;46.052;14.544;2023-03-23T14:37:49;97872.53;;;26.99;26.58
56182;BME280;51963;46.052;14.544;2023-03-23T14:40:17;97849.44;;;26.65;27.78
56182;BME280;51963;46.052;14.544;2023-03-23T14:42:43;97866.88;;;26.87;27.31
56182;BME280;51963;46.052;14.544;2023-03-23T14:45:19;97859.19;;;26.52;27.79
56182;BME280;51963;46.052;14.544;2023-03-23T14:47:51;97866.09;;;27.41;26.45